sensor_id;sensor_type;location;lat;lon;timestamp;P1;durP1;ratioP1;P2;durP2;ratioP2
20832;SDS011;56075;51.264;7.150;2022-09-01T00:01:15;5.03;;;1.70;;
20832;SDS011;56075;51.264;7.150;2022-09-01T00:03:56;3.30;;;1.77;;
20832;SDS011;56075;51.264;7.150;2022-09-01T00:06:33;4.22;;;1.70;;
20832;SDS011;56075;51.264;7.150;2022-09-01T00:09:05;3.72;;;2.10;;
20832;SDS011;56075;51.264;7.150;2022-09-01T00:11:39;4.68;;;1.80;;
20832;SDS011;56075;51.264;7.150;2022-09-01T00:14:12;3.75;;;2.00;;
20832;SDS011;56075;51.264;7.150;2022-09-01T00:16:44;3.50;;;1.98;;
20832;SDS011;56075;51.264;7.150;2022-09-01T00:19:15;3.40;;;1.80;;
20832;SDS011;56075;51.264;7.150;2022-09-01T00:21:46;2.70;;;1.60;;
20832;SDS011;56075;51.264;7.150;2022-09-01T00:24:17;4.03;;;2.10;;
20832;SDS011;56075;51.264;7.150;2022-09-01T00:26:49;3.47;;;1.67;;
20832;SDS011;56075;51.264;7.150;2022-09-01T00:29:20;3.70;;;1.83;;
20832;SDS011;56075;51.264;7.150;2022-09-01T00:31:51;5.22;;;1.80;;
20832;SDS011;56075;51.264;7.150;2022-09-01T00:34:23;3.30;;;1.90;;
20832;SDS011;56075;51.264;7.150;2022-09-01T00:36:54;2.88;;;1.98;;
20832;SDS011;56075;51.264;7.150;2022-09-01T00:39:25;3.00;;;1.75;;
20832;SDS011;56075;51.264;7.150;2022-09-01T00:41:56;4.80;;;2.05;;
20832;SDS011;56075;51.264;7.150;2022-09-01T00:44:29;4.65;;;2.20;;
20832;SDS011;56075;51.264;7.150;2022-09-01T00:47:00;3.28;;;2.00;;
20832;SDS011;56075;51.264;7.150;2022-09-01T00:52:10;4.82;;;2.03;;
20832;SDS011;56075;51.264;7.150;2022-09-01T00:54:51;3.00;;;1.80;;
20832;SDS011;56075;51.264;7.150;2022-09-01T00:57:25;3.55;;;1.80;;
20832;SDS011;56075;51.264;7.150;2022-09-01T00:59:58;5.53;;;2.00;;
20832;SDS011;56075;51.264;7.150;2022-09-01T01:02:33;4.15;;;1.90;;
20832;SDS011;56075;51.264;7.150;2022-09-01T01:05:05;3.00;;;1.75;;
20832;SDS011;56075;51.264;7.150;2022-09-01T01:07:37;5.85;;;1.60;;
20832;SDS011;56075;51.264;7.150;2022-09-01T01:10:12;2.85;;;1.88;;
20832;SDS011;56075;51.264;7.150;2022-09-01T01:12:45;4.25;;;2.10;;
20832;SDS011;56075;51.264;7.150;2022-09-01T01:15:17;3.38;;;1.60;;
20832;SDS011;56075;51.264;7.150;2022-09-01T01:17:49;3.85;;;1.77;;
20832;SDS011;56075;51.264;7.150;2022-09-01T01:20:21;5.18;;;1.95;;
20832;SDS011;56075;51.264;7.150;2022-09-01T01:23:33;4.32;;;1.80;;
20832;SDS011;56075;51.264;7.150;2022-09-01T01:26:10;3.67;;;1.73;;
20832;SDS011;56075;51.264;7.150;2022-09-01T01:28:43;3.05;;;1.88;;
20832;SDS011;56075;51.264;7.150;2022-09-01T01:31:15;4.10;;;1.70;;
20832;SDS011;56075;51.264;7.150;2022-09-01T01:33:49;3.95;;;1.67;;
20832;SDS011;56075;51.264;7.150;2022-09-01T01:36:27;4.80;;;1.55;;
20832;SDS011;56075;51.264;7.150;2022-09-01T01:39:11;7.10;;;2.20;;
20832;SDS011;56075;51.264;7.150;2022-09-01T01:41:45;4.00;;;2.00;;
20832;SDS011;56075;51.264;7.150;2022-09-01T01:44:21;3.92;;;2.10;;
20832;SDS011;56075;51.264;7.150;2022-09-01T01:46:58;3.80;;;1.88;;
20832;SDS011;56075;51.264;7.150;2022-09-01T01:49:34;3.10;;;1.80;;
20832;SDS011;56075;51.264;7.150;2022-09-01T01:52:06;7.35;;;2.20;;
20832;SDS011;56075;51.264;7.150;2022-09-01T01:54:37;4.32;;;1.88;;
20832;SDS011;56075;51.264;7.150;2022-09-01T01:57:08;3.53;;;1.67;;
20832;SDS011;56075;51.264;7.150;2022-09-01T01:59:40;5.07;;;1.92;;
20832;SDS011;56075;51.264;7.150;2022-09-01T02:02:11;3.72;;;1.90;;
20832;SDS011;56075;51.264;7.150;2022-09-01T02:04:42;5.40;;;2.20;;
20832;SDS011;56075;51.264;7.150;2022-09-01T02:07:14;2.17;;;1.70;;
20832;SDS011;56075;51.264;7.150;2022-09-01T02:09:47;6.35;;;2.13;;
20832;SDS011;56075;51.264;7.150;2022-09-01T02:12:19;4.50;;;1.83;;
20832;SDS011;56075;51.264;7.150;2022-09-01T02:14:50;4.05;;;2.00;;
20832;SDS011;56075;51.264;7.150;2022-09-01T02:17:24;4.88;;;1.90;;
20832;SDS011;56075;51.264;7.150;2022-09-01T02:19:56;6.90;;;2.10;;
20832;SDS011;56075;51.264;7.150;2022-09-01T02:22:28;4.60;;;1.90;;
20832;SDS011;56075;51.264;7.150;2022-09-01T02:24:59;3.83;;;1.92;;
20832;SDS011;56075;51.264;7.150;2022-09-01T02:27:32;3.63;;;1.90;;
20832;SDS011;56075;51.264;7.150;2022-09-01T02:30:06;3.38;;;1.85;;
20832;SDS011;56075;51.264;7.150;2022-09-01T02:32:41;10.38;;;1.90;;
20832;SDS011;56075;51.264;7.150;2022-09-01T02:35:12;4.55;;;1.80;;
20832;SDS011;56075;51.264;7.150;2022-09-01T02:37:44;3.10;;;1.80;;
20832;SDS011;56075;51.264;7.150;2022-09-01T02:40:18;3.22;;;1.95;;
20832;SDS011;56075;51.264;7.150;2022-09-01T02:42:50;5.35;;;1.75;;
20832;SDS011;56075;51.264;7.150;2022-09-01T02:45:27;6.50;;;2.17;;
20832;SDS011;56075;51.264;7.150;2022-09-01T02:47:59;3.72;;;2.05;;
20832;SDS011;56075;51.264;7.150;2022-09-01T02:50:30;4.53;;;1.98;;
20832;SDS011;56075;51.264;7.150;2022-09-01T02:53:03;2.58;;;1.73;;
20832;SDS011;56075;51.264;7.150;2022-09-01T02:55:40;4.05;;;1.83;;
20832;SDS011;56075;51.264;7.150;2022-09-01T02:58:12;6.90;;;1.73;;
20832;SDS011;56075;51.264;7.150;2022-09-01T03:00:53;3.45;;;2.10;;
20832;SDS011;56075;51.264;7.150;2022-09-01T03:03:27;5.78;;;1.98;;
20832;SDS011;56075;51.264;7.150;2022-09-01T03:05:58;4.75;;;2.13;;
20832;SDS011;56075;51.264;7.150;2022-09-01T03:08:31;4.03;;;2.17;;
20832;SDS011;56075;51.264;7.150;2022-09-01T03:11:06;3.28;;;1.77;;
20832;SDS011;56075;51.264;7.150;2022-09-01T03:13:42;3.60;;;1.95;;
20832;SDS011;56075;51.264;7.150;2022-09-01T03:16:13;4.18;;;1.90;;
20832;SDS011;56075;51.264;7.150;2022-09-01T03:18:45;5.07;;;2.20;;
20832;SDS011;56075;51.264;7.150;2022-09-01T03:21:17;3.55;;;1.88;;
20832;SDS011;56075;51.264;7.150;2022-09-01T03:23:50;3.65;;;1.80;;
20832;SDS011;56075;51.264;7.150;2022-09-01T03:26:22;3.47;;;1.95;;
20832;SDS011;56075;51.264;7.150;2022-09-01T03:28:53;5.20;;;1.83;;
20832;SDS011;56075;51.264;7.150;2022-09-01T03:31:26;2.83;;;1.58;;
20832;SDS011;56075;51.264;7.150;2022-09-01T03:33:59;2.88;;;1.90;;
20832;SDS011;56075;51.264;7.150;2022-09-01T03:36:35;5.05;;;1.70;;
20832;SDS011;56075;51.264;7.150;2022-09-01T03:39:06;4.60;;;1.77;;
20832;SDS011;56075;51.264;7.150;2022-09-01T03:41:39;4.60;;;2.00;;
20832;SDS011;56075;51.264;7.150;2022-09-01T03:44:13;4.88;;;1.73;;
20832;SDS011;56075;51.264;7.150;2022-09-01T03:46:46;7.30;;;1.95;;
20832;SDS011;56075;51.264;7.150;2022-09-01T03:49:18;2.92;;;1.70;;
20832;SDS011;56075;51.264;7.150;2022-09-01T03:51:55;4.35;;;1.70;;
20832;SDS011;56075;51.264;7.150;2022-09-01T03:54:28;3.60;;;2.00;;
20832;SDS011;56075;51.264;7.150;2022-09-01T03:56:59;5.03;;;1.92;;
20832;SDS011;56075;51.264;7.150;2022-09-01T03:59:33;4.45;;;2.00;;
20832;SDS011;56075;51.264;7.150;2022-09-01T04:02:05;3.72;;;1.80;;
20832;SDS011;56075;51.264;7.150;2022-09-01T04:04:37;3.65;;;2.00;;
20832;SDS011;56075;51.264;7.150;2022-09-01T04:07:08;2.92;;;1.85;;
20832;SDS011;56075;51.264;7.150;2022-09-01T04:09:39;3.75;;;2.08;;
20832;SDS011;56075;51.264;7.150;2022-09-01T04:12:11;6.55;;;2.30;;
20832;SDS011;56075;51.264;7.150;2022-09-01T04:14:46;5.07;;;1.90;;
20832;SDS011;56075;51.264;7.150;2022-09-01T04:17:18;6.88;;;2.15;;
20832;SDS011;56075;51.264;7.150;2022-09-01T04:20:08;3.97;;;2.35;;
20832;SDS011;56075;51.264;7.150;2022-09-01T04:22:39;4.10;;;2.15;;
20832;SDS011;56075;51.264;7.150;2022-09-01T04:25:10;7.97;;;2.45;;
20832;SDS011;56075;51.264;7.150;2022-09-01T04:27:42;4.30;;;2.10;;
20832;SDS011;56075;51.264;7.150;2022-09-01T04:30:17;5.90;;;2.20;;
20832;SDS011;56075;51.264;7.150;2022-09-01T04:32:55;4.03;;;2.00;;
20832;SDS011;56075;51.264;7.150;2022-09-01T04:35:27;5.15;;;2.55;;
20832;SDS011;56075;51.264;7.150;2022-09-01T04:38:02;5.30;;;2.22;;
20832;SDS011;56075;51.264;7.150;2022-09-01T04:40:37;4.28;;;2.58;;
20832;SDS011;56075;51.264;7.150;2022-09-01T04:43:09;4.40;;;2.47;;
20832;SDS011;56075;51.264;7.150;2022-09-01T04:45:40;4.32;;;2.25;;
20832;SDS011;56075;51.264;7.150;2022-09-01T04:48:12;6.18;;;2.10;;
20832;SDS011;56075;51.264;7.150;2022-09-01T04:50:44;2.95;;;2.00;;
20832;SDS011;56075;51.264;7.150;2022-09-01T04:53:21;5.43;;;2.05;;
20832;SDS011;56075;51.264;7.150;2022-09-01T04:55:55;5.63;;;2.42;;
20832;SDS011;56075;51.264;7.150;2022-09-01T04:58:28;4.70;;;2.38;;
20832;SDS011;56075;51.264;7.150;2022-09-01T05:01:00;4.93;;;2.30;;
20832;SDS011;56075;51.264;7.150;2022-09-01T05:03:35;4.05;;;2.03;;
20832;SDS011;56075;51.264;7.150;2022-09-01T05:06:17;9.23;;;2.50;;
20832;SDS011;56075;51.264;7.150;2022-09-01T05:08:56;4.40;;;2.28;;
20832;SDS011;56075;51.264;7.150;2022-09-01T05:11:45;8.00;;;2.03;;
20832;SDS011;56075;51.264;7.150;2022-09-01T05:14:24;5.35;;;2.40;;
20832;SDS011;56075;51.264;7.150;2022-09-01T05:16:56;13.27;;;2.25;;
20832;SDS011;56075;51.264;7.150;2022-09-01T05:19:29;6.45;;;2.22;;
20832;SDS011;56075;51.264;7.150;2022-09-01T05:22:03;5.18;;;2.22;;
20832;SDS011;56075;51.264;7.150;2022-09-01T05:24:36;8.20;;;2.92;;
20832;SDS011;56075;51.264;7.150;2022-09-01T05:27:08;5.07;;;2.00;;
20832;SDS011;56075;51.264;7.150;2022-09-01T05:29:42;6.68;;;2.60;;
20832;SDS011;56075;51.264;7.150;2022-09-01T05:32:15;4.38;;;2.25;;
20832;SDS011;56075;51.264;7.150;2022-09-01T05:34:46;5.53;;;2.10;;
20832;SDS011;56075;51.264;7.150;2022-09-01T05:37:19;5.18;;;2.15;;
20832;SDS011;56075;51.264;7.150;2022-09-01T05:39:51;5.63;;;2.30;;
20832;SDS011;56075;51.264;7.150;2022-09-01T05:42:22;5.05;;;2.40;;
20832;SDS011;56075;51.264;7.150;2022-09-01T05:44:54;8.07;;;2.22;;
20832;SDS011;56075;51.264;7.150;2022-09-01T05:47:25;6.85;;;2.25;;
20832;SDS011;56075;51.264;7.150;2022-09-01T05:49:58;5.68;;;2.42;;
20832;SDS011;56075;51.264;7.150;2022-09-01T05:52:32;5.57;;;2.17;;
20832;SDS011;56075;51.264;7.150;2022-09-01T05:55:06;5.03;;;2.42;;
20832;SDS011;56075;51.264;7.150;2022-09-01T05:57:42;5.32;;;2.30;;
20832;SDS011;56075;51.264;7.150;2022-09-01T06:00:14;6.95;;;2.30;;
20832;SDS011;56075;51.264;7.150;2022-09-01T06:02:50;4.20;;;2.03;;
20832;SDS011;56075;51.264;7.150;2022-09-01T06:05:25;4.53;;;2.40;;
20832;SDS011;56075;51.264;7.150;2022-09-01T06:07:57;6.80;;;2.83;;
20832;SDS011;56075;51.264;7.150;2022-09-01T06:10:28;8.38;;;2.25;;
20832;SDS011;56075;51.264;7.150;2022-09-01T06:13:00;5.35;;;2.30;;
20832;SDS011;56075;51.264;7.150;2022-09-01T06:15:32;4.75;;;2.40;;
20832;SDS011;56075;51.264;7.150;2022-09-01T06:18:07;6.57;;;2.75;;
20832;SDS011;56075;51.264;7.150;2022-09-01T06:20:47;4.75;;;2.50;;
20832;SDS011;56075;51.264;7.150;2022-09-01T06:23:19;5.35;;;2.22;;
20832;SDS011;56075;51.264;7.150;2022-09-01T06:25:50;5.70;;;2.28;;
20832;SDS011;56075;51.264;7.150;2022-09-01T06:28:25;5.07;;;2.28;;
20832;SDS011;56075;51.264;7.150;2022-09-01T06:30:59;6.63;;;2.20;;
20832;SDS011;56075;51.264;7.150;2022-09-01T06:33:36;5.32;;;2.30;;
20832;SDS011;56075;51.264;7.150;2022-09-01T06:36:08;4.22;;;1.95;;
20832;SDS011;56075;51.264;7.150;2022-09-01T06:38:40;7.55;;;2.30;;
20832;SDS011;56075;51.264;7.150;2022-09-01T06:41:12;5.35;;;2.15;;
20832;SDS011;56075;51.264;7.150;2022-09-01T06:43:47;6.13;;;2.08;;
20832;SDS011;56075;51.264;7.150;2022-09-01T06:46:20;4.93;;;2.20;;
20832;SDS011;56075;51.264;7.150;2022-09-01T06:48:53;9.05;;;2.40;;
20832;SDS011;56075;51.264;7.150;2022-09-01T06:51:28;3.97;;;2.20;;
20832;SDS011;56075;51.264;7.150;2022-09-01T06:54:00;5.10;;;2.17;;
20832;SDS011;56075;51.264;7.150;2022-09-01T06:56:35;6.18;;;2.15;;
20832;SDS011;56075;51.264;7.150;2022-09-01T06:59:06;4.97;;;2.08;;
20832;SDS011;56075;51.264;7.150;2022-09-01T07:01:39;5.80;;;2.00;;
20832;SDS011;56075;51.264;7.150;2022-09-01T07:04:11;4.28;;;2.10;;
20832;SDS011;56075;51.264;7.150;2022-09-01T07:06:44;4.47;;;1.88;;
20832;SDS011;56075;51.264;7.150;2022-09-01T07:09:21;5.60;;;2.10;;
20832;SDS011;56075;51.264;7.150;2022-09-01T07:12:16;4.15;;;1.95;;
20832;SDS011;56075;51.264;7.150;2022-09-01T07:14:50;4.07;;;1.75;;
20832;SDS011;56075;51.264;7.150;2022-09-01T07:17:22;3.22;;;1.67;;
20832;SDS011;56075;51.264;7.150;2022-09-01T07:19:55;6.75;;;1.67;;
20832;SDS011;56075;51.264;7.150;2022-09-01T07:22:29;14.90;;;2.17;;
20832;SDS011;56075;51.264;7.150;2022-09-01T07:25:00;7.20;;;1.70;;
20832;SDS011;56075;51.264;7.150;2022-09-01T07:27:41;8.05;;;1.65;;
20832;SDS011;56075;51.264;7.150;2022-09-01T07:30:20;16.05;;;2.30;;
20832;SDS011;56075;51.264;7.150;2022-09-01T07:32:52;7.75;;;1.70;;
20832;SDS011;56075;51.264;7.150;2022-09-01T07:35:25;5.43;;;1.33;;
20832;SDS011;56075;51.264;7.150;2022-09-01T07:37:56;3.15;;;1.63;;
20832;SDS011;56075;51.264;7.150;2022-09-01T07:40:28;3.70;;;1.45;;
20832;SDS011;56075;51.264;7.150;2022-09-01T07:43:18;2.08;;;1.33;;
20832;SDS011;56075;51.264;7.150;2022-09-01T07:46:16;6.45;;;1.55;;
20832;SDS011;56075;51.264;7.150;2022-09-01T07:48:48;4.72;;;1.40;;
20832;SDS011;56075;51.264;7.150;2022-09-01T07:51:24;4.22;;;1.60;;
20832;SDS011;56075;51.264;7.150;2022-09-01T07:53:56;4.78;;;1.20;;
20832;SDS011;56075;51.264;7.150;2022-09-01T07:56:29;6.10;;;2.17;;
20832;SDS011;56075;51.264;7.150;2022-09-01T07:59:01;3.70;;;1.17;;
20832;SDS011;56075;51.264;7.150;2022-09-01T08:01:32;6.10;;;1.23;;
20832;SDS011;56075;51.264;7.150;2022-09-01T08:04:04;4.18;;;1.25;;
20832;SDS011;56075;51.264;7.150;2022-09-01T08:06:35;2.38;;;1.10;;
20832;SDS011;56075;51.264;7.150;2022-09-01T08:09:06;3.95;;;1.30;;
20832;SDS011;56075;51.264;7.150;2022-09-01T08:11:38;6.35;;;1.10;;
20832;SDS011;56075;51.264;7.150;2022-09-01T08:14:10;1.77;;;1.10;;
20832;SDS011;56075;51.264;7.150;2022-09-01T08:16:41;1.95;;;1.00;;
20832;SDS011;56075;51.264;7.150;2022-09-01T08:19:13;4.78;;;1.50;;
20832;SDS011;56075;51.264;7.150;2022-09-01T08:22:09;3.30;;;1.30;;
20832;SDS011;56075;51.264;7.150;2022-09-01T08:24:51;1.58;;;1.10;;
20832;SDS011;56075;51.264;7.150;2022-09-01T08:27:23;5.63;;;1.17;;
20832;SDS011;56075;51.264;7.150;2022-09-01T08:29:54;1.40;;;1.00;;
20832;SDS011;56075;51.264;7.150;2022-09-01T08:32:25;3.17;;;1.30;;
20832;SDS011;56075;51.264;7.150;2022-09-01T08:34:57;3.38;;;1.08;;
20832;SDS011;56075;51.264;7.150;2022-09-01T08:37:29;3.05;;;1.10;;
20832;SDS011;56075;51.264;7.150;2022-09-01T08:40:01;2.20;;;0.98;;
20832;SDS011;56075;51.264;7.150;2022-09-01T08:45:32;4.13;;;1.15;;
20832;SDS011;56075;51.264;7.150;2022-09-01T08:48:27;1.55;;;0.90;;
20832;SDS011;56075;51.264;7.150;2022-09-01T08:51:18;2.40;;;0.80;;
20832;SDS011;56075;51.264;7.150;2022-09-01T08:54:04;5.95;;;0.93;;
20832;SDS011;56075;51.264;7.150;2022-09-01T08:56:43;1.65;;;0.73;;
20832;SDS011;56075;51.264;7.150;2022-09-01T08:59:17;4.00;;;1.00;;
20832;SDS011;56075;51.264;7.150;2022-09-01T09:05:04;2.72;;;0.82;;
20832;SDS011;56075;51.264;7.150;2022-09-01T09:10:23;3.00;;;1.23;;
20832;SDS011;56075;51.264;7.150;2022-09-01T09:13:04;4.88;;;1.10;;
20832;SDS011;56075;51.264;7.150;2022-09-01T09:15:43;2.30;;;0.93;;
20832;SDS011;56075;51.264;7.150;2022-09-01T09:18:36;3.90;;;0.90;;
20832;SDS011;56075;51.264;7.150;2022-09-01T09:21:18;3.50;;;0.90;;
20832;SDS011;56075;51.264;7.150;2022-09-01T09:26:57;5.15;;;1.02;;
20832;SDS011;56075;51.264;7.150;2022-09-01T09:29:29;3.38;;;1.00;;
20832;SDS011;56075;51.264;7.150;2022-09-01T09:32:03;7.05;;;0.90;;
20832;SDS011;56075;51.264;7.150;2022-09-01T09:34:37;5.75;;;1.10;;
20832;SDS011;56075;51.264;7.150;2022-09-01T09:40:02;4.45;;;1.10;;
20832;SDS011;56075;51.264;7.150;2022-09-01T09:45:28;2.85;;;0.82;;
20832;SDS011;56075;51.264;7.150;2022-09-01T09:48:06;4.60;;;0.90;;
20832;SDS011;56075;51.264;7.150;2022-09-01T09:51:14;3.28;;;0.88;;
20832;SDS011;56075;51.264;7.150;2022-09-01T09:53:47;2.65;;;1.00;;
20832;SDS011;56075;51.264;7.150;2022-09-01T09:56:22;3.00;;;0.73;;
20832;SDS011;56075;51.264;7.150;2022-09-01T09:58:54;1.35;;;1.00;;
20832;SDS011;56075;51.264;7.150;2022-09-01T10:03:58;2.58;;;0.90;;
20832;SDS011;56075;51.264;7.150;2022-09-01T10:06:34;1.58;;;0.90;;
20832;SDS011;56075;51.264;7.150;2022-09-01T10:09:15;2.78;;;0.90;;
20832;SDS011;56075;51.264;7.150;2022-09-01T10:12:05;5.47;;;0.90;;
20832;SDS011;56075;51.264;7.150;2022-09-01T10:14:40;2.83;;;0.80;;
20832;SDS011;56075;51.264;7.150;2022-09-01T10:17:16;2.67;;;1.00;;
20832;SDS011;56075;51.264;7.150;2022-09-01T10:19:56;2.45;;;1.10;;
20832;SDS011;56075;51.264;7.150;2022-09-01T10:22:35;3.60;;;0.93;;
20832;SDS011;56075;51.264;7.150;2022-09-01T10:25:10;2.65;;;1.00;;
20832;SDS011;56075;51.264;7.150;2022-09-01T10:27:51;4.05;;;1.33;;
20832;SDS011;56075;51.264;7.150;2022-09-01T10:30:27;1.58;;;0.90;;
20832;SDS011;56075;51.264;7.150;2022-09-01T10:33:00;4.55;;;1.13;;
20832;SDS011;56075;51.264;7.150;2022-09-01T10:35:35;1.50;;;1.08;;
20832;SDS011;56075;51.264;7.150;2022-09-01T10:38:14;2.72;;;1.15;;
20832;SDS011;56075;51.264;7.150;2022-09-01T10:40:52;3.60;;;1.00;;
20832;SDS011;56075;51.264;7.150;2022-09-01T10:43:51;2.42;;;0.95;;
20832;SDS011;56075;51.264;7.150;2022-09-01T10:48:55;2.45;;;1.27;;
20832;SDS011;56075;51.264;7.150;2022-09-01T10:53:59;2.15;;;1.20;;
20832;SDS011;56075;51.264;7.150;2022-09-01T10:56:36;2.78;;;1.20;;
20832;SDS011;56075;51.264;7.150;2022-09-01T11:07:02;3.00;;;1.30;;
20832;SDS011;56075;51.264;7.150;2022-09-01T11:09:41;2.40;;;1.20;;
20832;SDS011;56075;51.264;7.150;2022-09-01T11:15:41;1.30;;;1.20;;
20832;SDS011;56075;51.264;7.150;2022-09-01T11:18:15;2.50;;;1.30;;
20832;SDS011;56075;51.264;7.150;2022-09-01T11:21:40;2.88;;;1.27;;
20832;SDS011;56075;51.264;7.150;2022-09-01T11:27:06;3.33;;;1.20;;
20832;SDS011;56075;51.264;7.150;2022-09-01T11:29:53;1.85;;;1.30;;
20832;SDS011;56075;51.264;7.150;2022-09-01T11:32:34;3.83;;;1.30;;
20832;SDS011;56075;51.264;7.150;2022-09-01T11:35:18;3.80;;;1.10;;
20832;SDS011;56075;51.264;7.150;2022-09-01T11:37:52;3.50;;;1.00;;
20832;SDS011;56075;51.264;7.150;2022-09-01T11:40:27;2.25;;;1.02;;
20832;SDS011;56075;51.264;7.150;2022-09-01T11:43:06;1.55;;;1.30;;
20832;SDS011;56075;51.264;7.150;2022-09-01T11:45:44;4.65;;;1.30;;
20832;SDS011;56075;51.264;7.150;2022-09-01T11:48:49;2.92;;;1.13;;
20832;SDS011;56075;51.264;7.150;2022-09-01T11:51:21;4.93;;;1.33;;
20832;SDS011;56075;51.264;7.150;2022-09-01T11:53:56;6.00;;;1.35;;
20832;SDS011;56075;51.264;7.150;2022-09-01T11:56:30;3.13;;;1.48;;
20832;SDS011;56075;51.264;7.150;2022-09-01T11:59:01;4.28;;;1.20;;
20832;SDS011;56075;51.264;7.150;2022-09-01T12:01:33;2.40;;;1.30;;
20832;SDS011;56075;51.264;7.150;2022-09-01T12:04:22;2.13;;;1.40;;
20832;SDS011;56075;51.264;7.150;2022-09-01T12:06:58;2.58;;;1.40;;
20832;SDS011;56075;51.264;7.150;2022-09-01T12:09:40;2.70;;;1.40;;
20832;SDS011;56075;51.264;7.150;2022-09-01T12:12:28;5.70;;;1.40;;
20832;SDS011;56075;51.264;7.150;2022-09-01T12:15:10;2.72;;;1.50;;
20832;SDS011;56075;51.264;7.150;2022-09-01T12:17:47;1.60;;;1.20;;
20832;SDS011;56075;51.264;7.150;2022-09-01T12:20:23;2.10;;;1.38;;
20832;SDS011;56075;51.264;7.150;2022-09-01T12:22:58;2.05;;;1.23;;
20832;SDS011;56075;51.264;7.150;2022-09-01T12:25:32;3.90;;;1.40;;
20832;SDS011;56075;51.264;7.150;2022-09-01T12:28:04;2.67;;;1.40;;
20832;SDS011;56075;51.264;7.150;2022-09-01T12:30:35;2.35;;;1.40;;
20832;SDS011;56075;51.264;7.150;2022-09-01T12:33:10;2.05;;;1.30;;
20832;SDS011;56075;51.264;7.150;2022-09-01T12:35:44;3.67;;;1.40;;
20832;SDS011;56075;51.264;7.150;2022-09-01T12:40:53;5.88;;;1.80;;
20832;SDS011;56075;51.264;7.150;2022-09-01T12:43:34;4.22;;;1.50;;
20832;SDS011;56075;51.264;7.150;2022-09-01T12:46:08;2.08;;;1.58;;
20832;SDS011;56075;51.264;7.150;2022-09-01T12:48:40;2.72;;;1.25;;
20832;SDS011;56075;51.264;7.150;2022-09-01T12:51:23;3.50;;;1.70;;
20832;SDS011;56075;51.264;7.150;2022-09-01T12:53:56;3.15;;;1.35;;
20832;SDS011;56075;51.264;7.150;2022-09-01T13:01:34;1.75;;;1.40;;
20832;SDS011;56075;51.264;7.150;2022-09-01T13:06:42;2.17;;;1.27;;
20832;SDS011;56075;51.264;7.150;2022-09-01T13:09:14;1.75;;;1.35;;
20832;SDS011;56075;51.264;7.150;2022-09-01T13:11:45;1.77;;;1.48;;
20832;SDS011;56075;51.264;7.150;2022-09-01T13:14:17;1.90;;;1.38;;
20832;SDS011;56075;51.264;7.150;2022-09-01T13:16:48;1.83;;;1.50;;
20832;SDS011;56075;51.264;7.150;2022-09-01T13:19:20;4.53;;;1.48;;
20832;SDS011;56075;51.264;7.150;2022-09-01T13:21:51;2.17;;;1.50;;
20832;SDS011;56075;51.264;7.150;2022-09-01T13:24:22;6.82;;;1.98;;
20832;SDS011;56075;51.264;7.150;2022-09-01T13:26:53;7.55;;;1.80;;
20832;SDS011;56075;51.264;7.150;2022-09-01T13:29:26;1.80;;;1.40;;
20832;SDS011;56075;51.264;7.150;2022-09-01T13:31:57;2.97;;;1.50;;
20832;SDS011;56075;51.264;7.150;2022-09-01T13:34:29;3.58;;;1.40;;
20832;SDS011;56075;51.264;7.150;2022-09-01T13:37:00;3.05;;;1.30;;
20832;SDS011;56075;51.264;7.150;2022-09-01T13:39:31;3.38;;;1.45;;
20832;SDS011;56075;51.264;7.150;2022-09-01T13:42:03;4.93;;;1.50;;
20832;SDS011;56075;51.264;7.150;2022-09-01T13:44:34;2.22;;;1.42;;
20832;SDS011;56075;51.264;7.150;2022-09-01T13:47:05;1.63;;;1.30;;
20832;SDS011;56075;51.264;7.150;2022-09-01T13:49:36;2.58;;;1.35;;
20832;SDS011;56075;51.264;7.150;2022-09-01T13:52:07;2.35;;;1.38;;
20832;SDS011;56075;51.264;7.150;2022-09-01T13:54:38;3.15;;;1.50;;
20832;SDS011;56075;51.264;7.150;2022-09-01T13:57:10;2.83;;;1.30;;
20832;SDS011;56075;51.264;7.150;2022-09-01T13:59:41;2.60;;;1.25;;
20832;SDS011;56075;51.264;7.150;2022-09-01T14:02:13;3.53;;;1.30;;
20832;SDS011;56075;51.264;7.150;2022-09-01T14:04:44;3.95;;;1.30;;
20832;SDS011;56075;51.264;7.150;2022-09-01T14:07:15;1.88;;;1.20;;
20832;SDS011;56075;51.264;7.150;2022-09-01T14:09:48;1.45;;;1.20;;
20832;SDS011;56075;51.264;7.150;2022-09-01T14:12:19;3.35;;;1.42;;
20832;SDS011;56075;51.264;7.150;2022-09-01T14:14:50;2.58;;;1.33;;
20832;SDS011;56075;51.264;7.150;2022-09-01T14:17:22;1.90;;;1.30;;
20832;SDS011;56075;51.264;7.150;2022-09-01T14:19:53;3.25;;;1.20;;
20832;SDS011;56075;51.264;7.150;2022-09-01T14:22:24;5.43;;;1.40;;
20832;SDS011;56075;51.264;7.150;2022-09-01T14:24:55;3.03;;;1.70;;
20832;SDS011;56075;51.264;7.150;2022-09-01T14:27:28;2.78;;;1.38;;
20832;SDS011;56075;51.264;7.150;2022-09-01T14:29:59;2.80;;;1.50;;
20832;SDS011;56075;51.264;7.150;2022-09-01T14:32:33;2.15;;;1.33;;
20832;SDS011;56075;51.264;7.150;2022-09-01T14:35:04;4.10;;;1.40;;
20832;SDS011;56075;51.264;7.150;2022-09-01T14:37:37;4.10;;;1.17;;
20832;SDS011;56075;51.264;7.150;2022-09-01T14:40:10;3.10;;;1.30;;
20832;SDS011;56075;51.264;7.150;2022-09-01T14:42:47;5.05;;;1.27;;
20832;SDS011;56075;51.264;7.150;2022-09-01T14:45:22;1.98;;;1.42;;
20832;SDS011;56075;51.264;7.150;2022-09-01T14:47:56;3.97;;;1.25;;
20832;SDS011;56075;51.264;7.150;2022-09-01T14:50:30;6.40;;;1.30;;
20832;SDS011;56075;51.264;7.150;2022-09-01T14:53:02;2.97;;;1.30;;
20832;SDS011;56075;51.264;7.150;2022-09-01T14:55:33;2.63;;;1.40;;
20832;SDS011;56075;51.264;7.150;2022-09-01T14:58:04;2.92;;;1.25;;
20832;SDS011;56075;51.264;7.150;2022-09-01T15:00:35;1.88;;;1.27;;
20832;SDS011;56075;51.264;7.150;2022-09-01T15:03:08;2.92;;;1.58;;
20832;SDS011;56075;51.264;7.150;2022-09-01T15:05:39;2.40;;;1.55;;
20832;SDS011;56075;51.264;7.150;2022-09-01T15:08:10;3.28;;;1.50;;
20832;SDS011;56075;51.264;7.150;2022-09-01T15:10:41;1.77;;;1.52;;
20832;SDS011;56075;51.264;7.150;2022-09-01T15:13:13;2.42;;;1.65;;
20832;SDS011;56075;51.264;7.150;2022-09-01T15:15:44;2.45;;;1.40;;
20832;SDS011;56075;51.264;7.150;2022-09-01T15:18:15;2.65;;;1.50;;
20832;SDS011;56075;51.264;7.150;2022-09-01T15:20:46;3.10;;;1.45;;
20832;SDS011;56075;51.264;7.150;2022-09-01T15:23:21;2.22;;;1.30;;
20832;SDS011;56075;51.264;7.150;2022-09-01T15:25:54;1.95;;;1.38;;
20832;SDS011;56075;51.264;7.150;2022-09-01T15:28:27;2.97;;;1.52;;
20832;SDS011;56075;51.264;7.150;2022-09-01T15:30:59;2.13;;;1.20;;
20832;SDS011;56075;51.264;7.150;2022-09-01T15:33:30;3.63;;;1.40;;
20832;SDS011;56075;51.264;7.150;2022-09-01T15:36:01;3.97;;;2.05;;
20832;SDS011;56075;51.264;7.150;2022-09-01T15:38:33;3.70;;;1.67;;
20832;SDS011;56075;51.264;7.150;2022-09-01T15:41:04;3.13;;;1.42;;
20832;SDS011;56075;51.264;7.150;2022-09-01T15:43:36;4.22;;;1.35;;
20832;SDS011;56075;51.264;7.150;2022-09-01T15:46:07;3.17;;;1.42;;
20832;SDS011;56075;51.264;7.150;2022-09-01T15:48:39;3.05;;;1.48;;
20832;SDS011;56075;51.264;7.150;2022-09-01T15:54:18;3.05;;;1.30;;
20832;SDS011;56075;51.264;7.150;2022-09-01T15:56:49;4.65;;;1.88;;
20832;SDS011;56075;51.264;7.150;2022-09-01T15:59:20;4.00;;;1.75;;
20832;SDS011;56075;51.264;7.150;2022-09-01T16:01:51;2.90;;;1.65;;
20832;SDS011;56075;51.264;7.150;2022-09-01T16:04:23;2.83;;;1.63;;
20832;SDS011;56075;51.264;7.150;2022-09-01T16:06:54;2.20;;;1.70;;
20832;SDS011;56075;51.264;7.150;2022-09-01T16:09:26;5.47;;;2.20;;
20832;SDS011;56075;51.264;7.150;2022-09-01T16:11:57;2.20;;;1.58;;
20832;SDS011;56075;51.264;7.150;2022-09-01T16:14:28;3.65;;;1.60;;
20832;SDS011;56075;51.264;7.150;2022-09-01T16:22:44;2.80;;;1.80;;
20832;SDS011;56075;51.264;7.150;2022-09-01T16:25:27;2.30;;;1.40;;
20832;SDS011;56075;51.264;7.150;2022-09-01T16:28:03;4.18;;;1.70;;
20832;SDS011;56075;51.264;7.150;2022-09-01T16:30:39;3.55;;;1.60;;
20832;SDS011;56075;51.264;7.150;2022-09-01T16:33:10;4.70;;;2.03;;